Bajramaly, Turkmenistan

8:44 PM TMT on October 30, 2014 (GMT +0500)
MARY | Change Station
CLOSE
Current Station
Airport
Location: MARY,
Elevation: 728 ft
Nearby Weather Stations

Elev 728 ft 37.62 °N, 61.90 °E | Updated 44 minutes ago

Clear
Clear
45 °F
Feels Like 42 °F
N
4
Wind Variable Wind from NE

Today
High -- | Low -- °F
--% Chance of Precip.
Yesterday
High -- | Low -- °F
Precip. -- in
7:13 AM 5:55 PM
Waxing Crescent, 45% visible
Pressure 30.39 in
Visibility 3.7 miles
Clouds Clear
Windchill 42 °F
Dew Point 23 °F
Humidity 43%
Rainfall 0.00 in
Snow Depth Not available.
UV 0 out of 12
Pollen Not available.
Air Quality Not available.
Flu Activity Not available.
METAR UTAM 301500Z 04002MPS 6000 SKC 07/M05 Q1029 NOSIG RMK SC07

More Conditions Fewer Conditions

Pressure 30.39 in
Visibility 3.7 miles
Clouds Clear
Windchill 42 °F
Dew Point 23 °F
Humidity 43%
Rainfall 0.00 in
Snow Depth Not available.
UV 0 out of 12
Pollen Not available.
Air Quality Not available.
Flu Activity Not available.
METAR UTAM 301500Z 04002MPS 6000 SKC 07/M05 Q1029 NOSIG RMK SC07

More Conditions Fewer Conditions

10-Day Weather Forecast

Almanac

Astronomy

Oct. 30, 2014 Rise Set
Actual Time
Civil Twilight
Nautical Twilight
Astronomical Twilight
Moon
Length of Visible Light
Length of Day
Tomorrow will be .
, % of the Moon is Illuminated

Today's Extremes

Country Highs Country Lows

Community

WunderPhotos

Upload Photos

1,766,389 photos uploaded!

WunderBlogs® & News

Nearby

Air Quality

  Air Quality AQ Index Pollutant
Not available.

Snow Depth

Station Depth Elevation

Earthquake Activity

City Distance Mag. Time & Date
Minimum magnitude displayed is 2.5.

Coastal Water Temperatures

Place Temperature

Nearby Weather Stations